sensor_id;sensor_type;location;lat;lon;timestamp;temperature;humidity
6841;DHT22;3458;53.678;14.080;2023-07-09T00:01:40;19.70;79.10
6841;DHT22;3458;53.678;14.080;2023-07-09T00:04:09;19.60;79.00
6841;DHT22;3458;53.678;14.080;2023-07-09T00:06:35;19.60;79.40
6841;DHT22;3458;53.678;14.080;2023-07-09T00:09:00;19.50;79.50
6841;DHT22;3458;53.678;14.080;2023-07-09T00:11:26;19.50;80.00
6841;DHT22;3458;53.678;14.080;2023-07-09T00:13:51;19.50;79.90
6841;DHT22;3458;53.678;14.080;2023-07-09T00:16:21;19.50;80.00
6841;DHT22;3458;53.678;14.080;2023-07-09T00:18:48;19.40;80.60
6841;DHT22;3458;53.678;14.080;2023-07-09T00:21:15;19.40;80.70
6841;DHT22;3458;53.678;14.080;2023-07-09T00:23:41;19.40;81.20
6841;DHT22;3458;53.678;14.080;2023-07-09T00:26:10;19.40;80.80
6841;DHT22;3458;53.678;14.080;2023-07-09T00:28:39;19.30;81.00
6841;DHT22;3458;53.678;14.080;2023-07-09T00:31:04;19.30;81.40
6841;DHT22;3458;53.678;14.080;2023-07-09T00:33:30;19.20;81.20
6841;DHT22;3458;53.678;14.080;2023-07-09T00:35:58;19.20;81.30
6841;DHT22;3458;53.678;14.080;2023-07-09T00:38:24;19.20;82.60
6841;DHT22;3458;53.678;14.080;2023-07-09T00:41:05;19.10;81.90
6841;DHT22;3458;53.678;14.080;2023-07-09T00:43:34;19.10;82.00
6841;DHT22;3458;53.678;14.080;2023-07-09T00:48:56;19.10;82.40
6841;DHT22;3458;53.678;14.080;2023-07-09T00:51:26;19.00;82.70
6841;DHT22;3458;53.678;14.080;2023-07-09T00:53:55;19.00;82.80
6841;DHT22;3458;53.678;14.080;2023-07-09T00:56:33;19.00;82.70
6841;DHT22;3458;53.678;14.080;2023-07-09T00:59:05;18.90;82.80
6841;DHT22;3458;53.678;14.080;2023-07-09T01:01:33;18.80;82.50
6841;DHT22;3458;53.678;14.080;2023-07-09T01:04:00;18.80;82.20
6841;DHT22;3458;53.678;14.080;2023-07-09T01:06:35;18.70;82.40
6841;DHT22;3458;53.678;14.080;2023-07-09T01:09:03;18.70;82.50
6841;DHT22;3458;53.678;14.080;2023-07-09T01:11:29;18.70;82.80
6841;DHT22;3458;53.678;14.080;2023-07-09T01:13:57;18.70;82.80
6841;DHT22;3458;53.678;14.080;2023-07-09T01:16:27;18.70;82.60
6841;DHT22;3458;53.678;14.080;2023-07-09T01:18:53;18.70;82.60
6841;DHT22;3458;53.678;14.080;2023-07-09T01:21:19;18.60;82.50
6841;DHT22;3458;53.678;14.080;2023-07-09T01:23:46;18.60;83.10
6841;DHT22;3458;53.678;14.080;2023-07-09T01:26:18;18.60;83.10
6841;DHT22;3458;53.678;14.080;2023-07-09T01:28:44;18.60;83.20
6841;DHT22;3458;53.678;14.080;2023-07-09T01:31:10;18.50;83.40
6841;DHT22;3458;53.678;14.080;2023-07-09T01:33:37;18.50;83.50
6841;DHT22;3458;53.678;14.080;2023-07-09T01:36:05;18.50;83.90
6841;DHT22;3458;53.678;14.080;2023-07-09T01:38:32;18.40;83.90
6841;DHT22;3458;53.678;14.080;2023-07-09T01:40:58;18.40;84.20
6841;DHT22;3458;53.678;14.080;2023-07-09T01:43:25;18.30;84.10
6841;DHT22;3458;53.678;14.080;2023-07-09T01:45:51;18.30;84.10
6841;DHT22;3458;53.678;14.080;2023-07-09T01:48:17;18.20;84.40
6841;DHT22;3458;53.678;14.080;2023-07-09T01:50:46;18.20;84.50
6841;DHT22;3458;53.678;14.080;2023-07-09T01:53:12;18.20;84.80
6841;DHT22;3458;53.678;14.080;2023-07-09T01:55:38;18.30;84.90
6841;DHT22;3458;53.678;14.080;2023-07-09T01:58:03;18.30;84.60
6841;DHT22;3458;53.678;14.080;2023-07-09T02:00:33;18.20;84.40
6841;DHT22;3458;53.678;14.080;2023-07-09T02:03:02;18.10;85.00
6841;DHT22;3458;53.678;14.080;2023-07-09T02:05:30;18.10;85.20
6841;DHT22;3458;53.678;14.080;2023-07-09T02:07:56;18.10;85.10
6841;DHT22;3458;53.678;14.080;2023-07-09T02:10:22;18.10;85.10
6841;DHT22;3458;53.678;14.080;2023-07-09T02:12:48;18.00;84.90
6841;DHT22;3458;53.678;14.080;2023-07-09T02:15:14;17.90;84.30
6841;DHT22;3458;53.678;14.080;2023-07-09T02:17:40;17.80;84.80
6841;DHT22;3458;53.678;14.080;2023-07-09T02:20:06;17.90;85.00
6841;DHT22;3458;53.678;14.080;2023-07-09T02:22:33;17.90;85.00
6841;DHT22;3458;53.678;14.080;2023-07-09T02:24:58;17.80;84.60
6841;DHT22;3458;53.678;14.080;2023-07-09T02:27:24;17.80;84.80
6841;DHT22;3458;53.678;14.080;2023-07-09T02:29:49;17.70;84.80
6841;DHT22;3458;53.678;14.080;2023-07-09T02:32:23;17.70;85.00
6841;DHT22;3458;53.678;14.080;2023-07-09T02:34:51;17.70;85.20
6841;DHT22;3458;53.678;14.080;2023-07-09T02:37:19;17.70;85.10
6841;DHT22;3458;53.678;14.080;2023-07-09T02:39:45;17.70;85.10
6841;DHT22;3458;53.678;14.080;2023-07-09T02:42:12;17.60;85.30
6841;DHT22;3458;53.678;14.080;2023-07-09T02:44:39;17.60;85.60
6841;DHT22;3458;53.678;14.080;2023-07-09T02:47:05;17.60;85.80
6841;DHT22;3458;53.678;14.080;2023-07-09T02:49:31;17.60;86.10
6841;DHT22;3458;53.678;14.080;2023-07-09T02:51:56;17.50;86.10
6841;DHT22;3458;53.678;14.080;2023-07-09T02:54:22;17.50;86.20
6841;DHT22;3458;53.678;14.080;2023-07-09T02:56:47;17.50;86.50
6841;DHT22;3458;53.678;14.080;2023-07-09T02:59:13;17.50;86.30
6841;DHT22;3458;53.678;14.080;2023-07-09T03:01:39;17.50;86.10
6841;DHT22;3458;53.678;14.080;2023-07-09T03:04:05;17.50;86.40
6841;DHT22;3458;53.678;14.080;2023-07-09T03:06:32;17.50;86.20
6841;DHT22;3458;53.678;14.080;2023-07-09T03:09:01;17.40;86.10
6841;DHT22;3458;53.678;14.080;2023-07-09T03:11:29;17.40;86.80
6841;DHT22;3458;53.678;14.080;2023-07-09T03:13:55;17.40;86.90
6841;DHT22;3458;53.678;14.080;2023-07-09T03:16:21;17.40;87.10
6841;DHT22;3458;53.678;14.080;2023-07-09T03:18:46;17.30;86.80
6841;DHT22;3458;53.678;14.080;2023-07-09T03:21:12;17.30;87.50
6841;DHT22;3458;53.678;14.080;2023-07-09T03:23:37;17.30;87.60
6841;DHT22;3458;53.678;14.080;2023-07-09T03:26:03;17.30;87.60
6841;DHT22;3458;53.678;14.080;2023-07-09T03:28:31;17.30;88.00
6841;DHT22;3458;53.678;14.080;2023-07-09T03:30:56;17.30;88.20
6841;DHT22;3458;53.678;14.080;2023-07-09T03:33:22;17.30;88.10
6841;DHT22;3458;53.678;14.080;2023-07-09T03:35:49;17.30;88.20
6841;DHT22;3458;53.678;14.080;2023-07-09T03:38:14;17.30;88.70
6841;DHT22;3458;53.678;14.080;2023-07-09T03:40:40;17.30;88.70
6841;DHT22;3458;53.678;14.080;2023-07-09T03:43:06;17.30;88.80
6841;DHT22;3458;53.678;14.080;2023-07-09T03:45:32;17.20;89.20
6841;DHT22;3458;53.678;14.080;2023-07-09T03:47:58;17.20;89.50
6841;DHT22;3458;53.678;14.080;2023-07-09T03:50:23;17.30;89.90
6841;DHT22;3458;53.678;14.080;2023-07-09T03:52:49;17.20;89.90
6841;DHT22;3458;53.678;14.080;2023-07-09T03:55:15;17.20;90.10
6841;DHT22;3458;53.678;14.080;2023-07-09T03:57:40;17.20;90.10
6841;DHT22;3458;53.678;14.080;2023-07-09T04:00:07;17.20;90.30
6841;DHT22;3458;53.678;14.080;2023-07-09T04:02:38;17.20;90.10
6841;DHT22;3458;53.678;14.080;2023-07-09T04:05:04;17.10;90.00
6841;DHT22;3458;53.678;14.080;2023-07-09T04:07:30;17.10;90.20
6841;DHT22;3458;53.678;14.080;2023-07-09T04:09:56;17.10;90.00
6841;DHT22;3458;53.678;14.080;2023-07-09T04:12:21;17.00;90.50
6841;DHT22;3458;53.678;14.080;2023-07-09T04:14:47;17.10;91.00
6841;DHT22;3458;53.678;14.080;2023-07-09T04:17:12;17.10;91.00
6841;DHT22;3458;53.678;14.080;2023-07-09T04:19:38;17.10;91.10
6841;DHT22;3458;53.678;14.080;2023-07-09T04:22:03;17.10;91.40
6841;DHT22;3458;53.678;14.080;2023-07-09T04:24:30;17.10;91.40
6841;DHT22;3458;53.678;14.080;2023-07-09T04:26:55;17.20;92.10
6841;DHT22;3458;53.678;14.080;2023-07-09T04:29:22;17.20;92.20
6841;DHT22;3458;53.678;14.080;2023-07-09T04:31:48;17.30;92.50
6841;DHT22;3458;53.678;14.080;2023-07-09T04:34:13;17.30;93.00
6841;DHT22;3458;53.678;14.080;2023-07-09T04:36:39;17.30;93.70
6841;DHT22;3458;53.678;14.080;2023-07-09T04:39:05;17.30;94.20
6841;DHT22;3458;53.678;14.080;2023-07-09T04:41:30;17.30;94.70
6841;DHT22;3458;53.678;14.080;2023-07-09T04:43:56;17.40;95.30
6841;DHT22;3458;53.678;14.080;2023-07-09T04:46:21;17.40;95.70
6841;DHT22;3458;53.678;14.080;2023-07-09T04:48:47;17.50;96.20
6841;DHT22;3458;53.678;14.080;2023-07-09T04:51:12;17.50;96.60
6841;DHT22;3458;53.678;14.080;2023-07-09T04:53:38;17.50;97.30
6841;DHT22;3458;53.678;14.080;2023-07-09T04:56:03;17.60;98.10
6841;DHT22;3458;53.678;14.080;2023-07-09T04:58:30;17.60;99.00
6841;DHT22;3458;53.678;14.080;2023-07-09T05:00:59;17.70;99.70
6841;DHT22;3458;53.678;14.080;2023-07-09T05:03:25;17.70;99.90
6841;DHT22;3458;53.678;14.080;2023-07-09T05:05:51;17.70;99.90
6841;DHT22;3458;53.678;14.080;2023-07-09T05:08:16;17.80;99.90
6841;DHT22;3458;53.678;14.080;2023-07-09T05:10:48;17.80;99.90
6841;DHT22;3458;53.678;14.080;2023-07-09T05:13:16;17.80;99.90
6841;DHT22;3458;53.678;14.080;2023-07-09T05:15:45;17.90;99.90
6841;DHT22;3458;53.678;14.080;2023-07-09T05:18:14;17.90;99.90
6841;DHT22;3458;53.678;14.080;2023-07-09T05:20:41;18.00;99.90
6841;DHT22;3458;53.678;14.080;2023-07-09T05:23:09;18.00;99.90
6841;DHT22;3458;53.678;14.080;2023-07-09T05:25:35;18.10;99.90
6841;DHT22;3458;53.678;14.080;2023-07-09T05:28:00;18.10;99.90
6841;DHT22;3458;53.678;14.080;2023-07-09T05:30:26;18.20;99.90
6841;DHT22;3458;53.678;14.080;2023-07-09T05:32:52;18.20;99.90
6841;DHT22;3458;53.678;14.080;2023-07-09T05:35:19;18.30;99.90
6841;DHT22;3458;53.678;14.080;2023-07-09T05:37:44;18.40;99.90
6841;DHT22;3458;53.678;14.080;2023-07-09T05:40:10;18.40;99.90
6841;DHT22;3458;53.678;14.080;2023-07-09T05:42:36;18.50;99.90
6841;DHT22;3458;53.678;14.080;2023-07-09T05:45:01;18.60;99.90
6841;DHT22;3458;53.678;14.080;2023-07-09T05:47:27;18.60;99.90
6841;DHT22;3458;53.678;14.080;2023-07-09T05:49:52;18.70;99.90
6841;DHT22;3458;53.678;14.080;2023-07-09T05:52:20;18.70;99.90
6841;DHT22;3458;53.678;14.080;2023-07-09T05:54:49;18.80;99.90
6841;DHT22;3458;53.678;14.080;2023-07-09T05:57:15;18.70;99.90
6841;DHT22;3458;53.678;14.080;2023-07-09T05:59:40;18.80;99.90
6841;DHT22;3458;53.678;14.080;2023-07-09T06:02:13;18.90;99.90
6841;DHT22;3458;53.678;14.080;2023-07-09T06:04:39;18.90;99.90
6841;DHT22;3458;53.678;14.080;2023-07-09T06:07:05;19.00;99.90
6841;DHT22;3458;53.678;14.080;2023-07-09T06:09:31;19.00;99.90
6841;DHT22;3458;53.678;14.080;2023-07-09T06:11:57;19.10;99.90
6841;DHT22;3458;53.678;14.080;2023-07-09T06:14:22;19.10;99.90
6841;DHT22;3458;53.678;14.080;2023-07-09T06:16:48;19.20;99.90
6841;DHT22;3458;53.678;14.080;2023-07-09T06:19:13;19.20;99.90
6841;DHT22;3458;53.678;14.080;2023-07-09T06:21:40;19.20;99.90
6841;DHT22;3458;53.678;14.080;2023-07-09T06:24:06;19.30;99.90
6841;DHT22;3458;53.678;14.080;2023-07-09T06:26:32;19.30;99.90
6841;DHT22;3458;53.678;14.080;2023-07-09T06:28:58;19.30;99.90
6841;DHT22;3458;53.678;14.080;2023-07-09T06:31:24;19.40;99.90
6841;DHT22;3458;53.678;14.080;2023-07-09T06:33:50;19.40;99.90
6841;DHT22;3458;53.678;14.080;2023-07-09T06:36:17;19.40;99.90
6841;DHT22;3458;53.678;14.080;2023-07-09T06:38:43;19.50;99.90
6841;DHT22;3458;53.678;14.080;2023-07-09T06:41:10;19.50;99.90
6841;DHT22;3458;53.678;14.080;2023-07-09T06:43:35;19.60;99.90
6841;DHT22;3458;53.678;14.080;2023-07-09T06:46:04;19.60;99.90
6841;DHT22;3458;53.678;14.080;2023-07-09T06:48:30;19.70;99.90
6841;DHT22;3458;53.678;14.080;2023-07-09T06:50:57;19.70;99.90
6841;DHT22;3458;53.678;14.080;2023-07-09T06:53:24;19.80;99.90
6841;DHT22;3458;53.678;14.080;2023-07-09T06:55:49;19.70;99.90
6841;DHT22;3458;53.678;14.080;2023-07-09T06:58:16;19.80;99.90
6841;DHT22;3458;53.678;14.080;2023-07-09T07:00:42;19.80;99.90
6841;DHT22;3458;53.678;14.080;2023-07-09T07:03:09;19.90;99.90
6841;DHT22;3458;53.678;14.080;2023-07-09T07:05:34;19.90;99.90
6841;DHT22;3458;53.678;14.080;2023-07-09T07:08:01;19.90;99.90
6841;DHT22;3458;53.678;14.080;2023-07-09T07:10:27;20.00;99.90
6841;DHT22;3458;53.678;14.080;2023-07-09T07:12:53;20.00;99.90
6841;DHT22;3458;53.678;14.080;2023-07-09T07:15:19;20.00;99.90
6841;DHT22;3458;53.678;14.080;2023-07-09T07:17:45;20.10;99.90
6841;DHT22;3458;53.678;14.080;2023-07-09T07:20:12;20.20;99.90
6841;DHT22;3458;53.678;14.080;2023-07-09T07:22:39;20.20;99.90
6841;DHT22;3458;53.678;14.080;2023-07-09T07:25:05;20.30;99.90
6841;DHT22;3458;53.678;14.080;2023-07-09T07:27:32;20.30;99.90
6841;DHT22;3458;53.678;14.080;2023-07-09T07:29:57;20.40;99.90
6841;DHT22;3458;53.678;14.080;2023-07-09T07:32:23;20.40;99.90
6841;DHT22;3458;53.678;14.080;2023-07-09T07:34:49;20.40;99.90
6841;DHT22;3458;53.678;14.080;2023-07-09T07:37:15;20.50;99.90
6841;DHT22;3458;53.678;14.080;2023-07-09T07:39:40;20.60;99.90
6841;DHT22;3458;53.678;14.080;2023-07-09T07:42:07;20.70;99.90
6841;DHT22;3458;53.678;14.080;2023-07-09T07:44:32;20.70;99.90
6841;DHT22;3458;53.678;14.080;2023-07-09T07:46:58;20.80;99.90
6841;DHT22;3458;53.678;14.080;2023-07-09T07:49:23;20.80;99.50
6841;DHT22;3458;53.678;14.080;2023-07-09T07:51:49;20.90;97.60
6841;DHT22;3458;53.678;14.080;2023-07-09T07:54:14;21.00;95.50
6841;DHT22;3458;53.678;14.080;2023-07-09T07:56:40;21.00;94.60
6841;DHT22;3458;53.678;14.080;2023-07-09T07:59:06;21.10;94.90
6841;DHT22;3458;53.678;14.080;2023-07-09T08:01:32;21.20;94.50
6841;DHT22;3458;53.678;14.080;2023-07-09T08:04:01;21.20;93.80
6841;DHT22;3458;53.678;14.080;2023-07-09T08:06:27;21.30;94.40
6841;DHT22;3458;53.678;14.080;2023-07-09T08:08:52;21.40;94.70
6841;DHT22;3458;53.678;14.080;2023-07-09T08:11:18;21.40;93.10
6841;DHT22;3458;53.678;14.080;2023-07-09T08:13:43;21.40;91.60
6841;DHT22;3458;53.678;14.080;2023-07-09T08:16:09;21.40;91.00
6841;DHT22;3458;53.678;14.080;2023-07-09T08:18:37;21.50;91.70
6841;DHT22;3458;53.678;14.080;2023-07-09T08:21:02;21.50;91.10
6841;DHT22;3458;53.678;14.080;2023-07-09T08:23:29;21.60;91.30
6841;DHT22;3458;53.678;14.080;2023-07-09T08:25:58;21.60;90.90
6841;DHT22;3458;53.678;14.080;2023-07-09T08:28:25;21.60;90.80
6841;DHT22;3458;53.678;14.080;2023-07-09T08:30:54;21.70;90.70
6841;DHT22;3458;53.678;14.080;2023-07-09T08:33:20;21.70;88.80
6841;DHT22;3458;53.678;14.080;2023-07-09T08:35:49;21.80;87.10
6841;DHT22;3458;53.678;14.080;2023-07-09T08:38:15;21.80;85.70
6841;DHT22;3458;53.678;14.080;2023-07-09T08:40:41;21.90;86.10
6841;DHT22;3458;53.678;14.080;2023-07-09T08:46:10;22.10;84.90
6841;DHT22;3458;53.678;14.080;2023-07-09T08:48:42;22.20;86.70
6841;DHT22;3458;53.678;14.080;2023-07-09T08:56:17;22.40;84.40
6841;DHT22;3458;53.678;14.080;2023-07-09T08:58:44;22.40;83.70
6841;DHT22;3458;53.678;14.080;2023-07-09T09:01:23;22.40;86.70
6841;DHT22;3458;53.678;14.080;2023-07-09T09:03:52;22.50;90.40
6841;DHT22;3458;53.678;14.080;2023-07-09T09:06:26;22.60;88.70
6841;DHT22;3458;53.678;14.080;2023-07-09T09:16:45;22.60;72.10
6841;DHT22;3458;53.678;14.080;2023-07-09T09:19:34;22.70;72.30
6841;DHT22;3458;53.678;14.080;2023-07-09T09:22:11;22.80;71.60
6841;DHT22;3458;53.678;14.080;2023-07-09T09:24:58;22.90;68.10
6841;DHT22;3458;53.678;14.080;2023-07-09T09:27:27;23.00;64.80
6841;DHT22;3458;53.678;14.080;2023-07-09T09:29:53;23.00;62.80
6841;DHT22;3458;53.678;14.080;2023-07-09T09:32:28;23.10;60.20
6841;DHT22;3458;53.678;14.080;2023-07-09T09:34:54;23.10;61.90
6841;DHT22;3458;53.678;14.080;2023-07-09T09:37:29;23.20;61.50
6841;DHT22;3458;53.678;14.080;2023-07-09T09:39:55;23.20;60.90
6841;DHT22;3458;53.678;14.080;2023-07-09T09:42:24;23.30;59.60
6841;DHT22;3458;53.678;14.080;2023-07-09T09:44:52;23.40;59.30
6841;DHT22;3458;53.678;14.080;2023-07-09T09:47:18;23.40;59.00
6841;DHT22;3458;53.678;14.080;2023-07-09T09:49:44;23.50;58.10
6841;DHT22;3458;53.678;14.080;2023-07-09T09:52:15;23.60;56.40
6841;DHT22;3458;53.678;14.080;2023-07-09T09:54:56;23.60;59.20
6841;DHT22;3458;53.678;14.080;2023-07-09T09:57:27;23.50;61.50
6841;DHT22;3458;53.678;14.080;2023-07-09T09:59:54;23.60;61.90
6841;DHT22;3458;53.678;14.080;2023-07-09T10:02:23;23.70;60.30
6841;DHT22;3458;53.678;14.080;2023-07-09T10:04:48;23.90;56.50
6841;DHT22;3458;53.678;14.080;2023-07-09T10:07:23;24.10;54.20
6841;DHT22;3458;53.678;14.080;2023-07-09T10:09:54;24.10;55.60
6841;DHT22;3458;53.678;14.080;2023-07-09T10:15:32;24.20;53.90
6841;DHT22;3458;53.678;14.080;2023-07-09T10:18:09;24.30;52.00
6841;DHT22;3458;53.678;14.080;2023-07-09T10:20:47;24.30;54.30
6841;DHT22;3458;53.678;14.080;2023-07-09T10:23:27;24.30;55.40
6841;DHT22;3458;53.678;14.080;2023-07-09T10:26:13;24.30;53.40
6841;DHT22;3458;53.678;14.080;2023-07-09T10:34:08;24.50;53.10
6841;DHT22;3458;53.678;14.080;2023-07-09T10:39:48;24.70;51.10
6841;DHT22;3458;53.678;14.080;2023-07-09T10:42:35;24.70;53.80
6841;DHT22;3458;53.678;14.080;2023-07-09T10:45:15;25.00;48.10
6841;DHT22;3458;53.678;14.080;2023-07-09T10:47:48;25.10;49.80
6841;DHT22;3458;53.678;14.080;2023-07-09T10:50:31;25.10;49.60
6841;DHT22;3458;53.678;14.080;2023-07-09T10:53:02;25.20;48.30
6841;DHT22;3458;53.678;14.080;2023-07-09T10:55:46;25.30;48.30
6841;DHT22;3458;53.678;14.080;2023-07-09T10:58:25;25.30;50.90
6841;DHT22;3458;53.678;14.080;2023-07-09T11:00:53;25.40;50.00
6841;DHT22;3458;53.678;14.080;2023-07-09T11:03:28;25.50;50.10
6841;DHT22;3458;53.678;14.080;2023-07-09T11:05:58;25.70;48.10
6841;DHT22;3458;53.678;14.080;2023-07-09T11:08:34;25.60;48.80
6841;DHT22;3458;53.678;14.080;2023-07-09T11:11:04;25.60;49.20
6841;DHT22;3458;53.678;14.080;2023-07-09T11:13:43;25.70;48.90
6841;DHT22;3458;53.678;14.080;2023-07-09T11:16:27;25.80;48.10
6841;DHT22;3458;53.678;14.080;2023-07-09T11:19:00;25.90;48.00
6841;DHT22;3458;53.678;14.080;2023-07-09T11:21:26;26.10;46.00
6841;DHT22;3458;53.678;14.080;2023-07-09T11:23:54;26.10;46.40
6841;DHT22;3458;53.678;14.080;2023-07-09T11:26:34;26.10;47.20
6841;DHT22;3458;53.678;14.080;2023-07-09T11:31:37;26.30;42.80
6841;DHT22;3458;53.678;14.080;2023-07-09T11:41:52;26.70;41.10
6841;DHT22;3458;53.678;14.080;2023-07-09T11:49:58;26.80;43.20
6841;DHT22;3458;53.678;14.080;2023-07-09T11:52:33;27.00;41.20
6841;DHT22;3458;53.678;14.080;2023-07-09T11:57:53;27.00;41.00
6841;DHT22;3458;53.678;14.080;2023-07-09T12:00:19;27.20;41.90
6841;DHT22;3458;53.678;14.080;2023-07-09T12:02:44;27.30;40.30
6841;DHT22;3458;53.678;14.080;2023-07-09T12:05:10;27.50;40.30
6841;DHT22;3458;53.678;14.080;2023-07-09T12:07:36;27.80;36.40
6841;DHT22;3458;53.678;14.080;2023-07-09T12:10:21;27.90;35.80
6841;DHT22;3458;53.678;14.080;2023-07-09T12:12:48;28.00;36.90
6841;DHT22;3458;53.678;14.080;2023-07-09T12:15:26;28.30;35.90
6841;DHT22;3458;53.678;14.080;2023-07-09T12:17:59;28.70;35.30
6841;DHT22;3458;53.678;14.080;2023-07-09T12:20:29;29.00;35.40
6841;DHT22;3458;53.678;14.080;2023-07-09T12:22:55;29.30;33.20
6841;DHT22;3458;53.678;14.080;2023-07-09T12:25:25;29.40;32.60
6841;DHT22;3458;53.678;14.080;2023-07-09T12:27:52;29.40;34.00
6841;DHT22;3458;53.678;14.080;2023-07-09T12:30:18;29.30;36.90
6841;DHT22;3458;53.678;14.080;2023-07-09T12:32:45;29.30;36.40
6841;DHT22;3458;53.678;14.080;2023-07-09T12:35:13;29.20;33.10
6841;DHT22;3458;53.678;14.080;2023-07-09T12:37:42;29.20;35.70
6841;DHT22;3458;53.678;14.080;2023-07-09T12:40:30;29.30;37.00
6841;DHT22;3458;53.678;14.080;2023-07-09T12:42:56;29.30;38.00
6841;DHT22;3458;53.678;14.080;2023-07-09T12:45:23;29.50;33.20
6841;DHT22;3458;53.678;14.080;2023-07-09T12:47:49;29.70;31.20
6841;DHT22;3458;53.678;14.080;2023-07-09T12:50:33;29.80;34.50
6841;DHT22;3458;53.678;14.080;2023-07-09T12:53:10;29.80;35.20
6841;DHT22;3458;53.678;14.080;2023-07-09T12:55:40;29.80;34.30
6841;DHT22;3458;53.678;14.080;2023-07-09T12:58:10;29.70;33.60
6841;DHT22;3458;53.678;14.080;2023-07-09T13:00:37;29.60;34.00
6841;DHT22;3458;53.678;14.080;2023-07-09T13:03:03;29.30;35.00
6841;DHT22;3458;53.678;14.080;2023-07-09T13:05:28;29.10;38.20
6841;DHT22;3458;53.678;14.080;2023-07-09T13:08:03;29.10;35.00
6841;DHT22;3458;53.678;14.080;2023-07-09T13:10:40;29.10;32.10
6841;DHT22;3458;53.678;14.080;2023-07-09T13:13:06;28.90;34.20
6841;DHT22;3458;53.678;14.080;2023-07-09T13:18:02;28.90;35.10
6841;DHT22;3458;53.678;14.080;2023-07-09T13:20:33;29.00;34.40
6841;DHT22;3458;53.678;14.080;2023-07-09T13:23:00;29.00;32.70
6841;DHT22;3458;53.678;14.080;2023-07-09T13:25:25;29.00;33.70
6841;DHT22;3458;53.678;14.080;2023-07-09T13:27:51;29.00;33.30
6841;DHT22;3458;53.678;14.080;2023-07-09T13:30:17;29.10;33.30
6841;DHT22;3458;53.678;14.080;2023-07-09T13:32:45;29.00;32.30
6841;DHT22;3458;53.678;14.080;2023-07-09T13:35:17;29.00;33.20
6841;DHT22;3458;53.678;14.080;2023-07-09T13:37:45;29.00;34.80
6841;DHT22;3458;53.678;14.080;2023-07-09T13:40:13;29.10;34.80
6841;DHT22;3458;53.678;14.080;2023-07-09T13:42:39;29.10;34.10
6841;DHT22;3458;53.678;14.080;2023-07-09T13:45:16;29.20;35.30
6841;DHT22;3458;53.678;14.080;2023-07-09T13:47:41;29.20;34.70
6841;DHT22;3458;53.678;14.080;2023-07-09T13:50:07;29.20;33.10
6841;DHT22;3458;53.678;14.080;2023-07-09T13:52:33;29.30;33.80
6841;DHT22;3458;53.678;14.080;2023-07-09T13:54:59;29.30;35.60
6841;DHT22;3458;53.678;14.080;2023-07-09T13:57:25;29.40;34.40
6841;DHT22;3458;53.678;14.080;2023-07-09T13:59:50;29.50;34.00
6841;DHT22;3458;53.678;14.080;2023-07-09T14:02:30;29.50;35.30
6841;DHT22;3458;53.678;14.080;2023-07-09T14:04:58;29.50;34.10
6841;DHT22;3458;53.678;14.080;2023-07-09T14:07:27;29.50;34.00
6841;DHT22;3458;53.678;14.080;2023-07-09T14:09:53;29.50;35.20
6841;DHT22;3458;53.678;14.080;2023-07-09T14:12:18;29.60;36.50
6841;DHT22;3458;53.678;14.080;2023-07-09T14:14:44;29.70;36.30
6841;DHT22;3458;53.678;14.080;2023-07-09T14:17:12;29.70;37.40
6841;DHT22;3458;53.678;14.080;2023-07-09T14:19:38;29.80;37.30
6841;DHT22;3458;53.678;14.080;2023-07-09T14:22:27;29.90;36.60
6841;DHT22;3458;53.678;14.080;2023-07-09T14:24:53;29.90;37.80
6841;DHT22;3458;53.678;14.080;2023-07-09T14:27:18;30.00;38.00
6841;DHT22;3458;53.678;14.080;2023-07-09T14:29:44;30.10;37.90
6841;DHT22;3458;53.678;14.080;2023-07-09T14:32:37;30.20;37.90
6841;DHT22;3458;53.678;14.080;2023-07-09T14:35:25;30.50;37.70
6841;DHT22;3458;53.678;14.080;2023-07-09T14:37:52;30.70;36.90
6841;DHT22;3458;53.678;14.080;2023-07-09T14:40:20;30.70;37.80
6841;DHT22;3458;53.678;14.080;2023-07-09T14:42:47;30.70;37.20
6841;DHT22;3458;53.678;14.080;2023-07-09T14:45:24;30.60;36.40
6841;DHT22;3458;53.678;14.080;2023-07-09T14:47:50;30.50;38.20
6841;DHT22;3458;53.678;14.080;2023-07-09T14:50:17;30.50;38.20
6841;DHT22;3458;53.678;14.080;2023-07-09T14:52:43;30.50;38.10
6841;DHT22;3458;53.678;14.080;2023-07-09T14:55:20;30.60;37.90
6841;DHT22;3458;53.678;14.080;2023-07-09T14:57:47;30.60;37.40
6841;DHT22;3458;53.678;14.080;2023-07-09T15:00:19;30.50;37.30
6841;DHT22;3458;53.678;14.080;2023-07-09T15:02:47;30.50;37.80
6841;DHT22;3458;53.678;14.080;2023-07-09T15:05:18;30.60;38.10
6841;DHT22;3458;53.678;14.080;2023-07-09T15:07:45;30.80;37.80
6841;DHT22;3458;53.678;14.080;2023-07-09T15:10:28;31.20;38.40
6841;DHT22;3458;53.678;14.080;2023-07-09T15:12:54;31.80;37.20
6841;DHT22;3458;53.678;14.080;2023-07-09T15:15:28;32.20;36.10
6841;DHT22;3458;53.678;14.080;2023-07-09T15:17:56;32.40;35.90
6841;DHT22;3458;53.678;14.080;2023-07-09T15:20:23;32.50;35.60
6841;DHT22;3458;53.678;14.080;2023-07-09T15:22:50;32.60;35.80
6841;DHT22;3458;53.678;14.080;2023-07-09T15:25:20;32.50;34.70
6841;DHT22;3458;53.678;14.080;2023-07-09T15:27:46;32.30;35.00
6841;DHT22;3458;53.678;14.080;2023-07-09T15:32:42;32.00;35.60
6841;DHT22;3458;53.678;14.080;2023-07-09T15:35:08;31.80;35.90
6841;DHT22;3458;53.678;14.080;2023-07-09T15:37:34;31.70;36.70
6841;DHT22;3458;53.678;14.080;2023-07-09T15:39:59;31.60;37.40
6841;DHT22;3458;53.678;14.080;2023-07-09T15:42:25;31.50;37.70
6841;DHT22;3458;53.678;14.080;2023-07-09T15:44:50;31.50;37.90
6841;DHT22;3458;53.678;14.080;2023-07-09T15:47:26;31.60;37.80
6841;DHT22;3458;53.678;14.080;2023-07-09T15:49:53;31.70;37.80
6841;DHT22;3458;53.678;14.080;2023-07-09T15:52:18;31.70;36.70
6841;DHT22;3458;53.678;14.080;2023-07-09T15:54:44;31.50;36.70
6841;DHT22;3458;53.678;14.080;2023-07-09T15:57:13;31.50;36.90
6841;DHT22;3458;53.678;14.080;2023-07-09T15:59:40;31.50;37.40
6841;DHT22;3458;53.678;14.080;2023-07-09T16:02:12;31.50;37.70
6841;DHT22;3458;53.678;14.080;2023-07-09T16:04:38;31.40;38.20
6841;DHT22;3458;53.678;14.080;2023-07-09T16:07:04;31.20;38.00
6841;DHT22;3458;53.678;14.080;2023-07-09T16:09:29;31.10;38.20
6841;DHT22;3458;53.678;14.080;2023-07-09T16:11:55;30.90;38.30
6841;DHT22;3458;53.678;14.080;2023-07-09T16:14:24;30.80;38.70
6841;DHT22;3458;53.678;14.080;2023-07-09T16:16:54;30.50;38.70
6841;DHT22;3458;53.678;14.080;2023-07-09T16:19:22;30.30;39.90
6841;DHT22;3458;53.678;14.080;2023-07-09T16:21:49;30.20;39.70
6841;DHT22;3458;53.678;14.080;2023-07-09T16:24:22;30.00;39.90
6841;DHT22;3458;53.678;14.080;2023-07-09T16:26:49;29.80;40.30
6841;DHT22;3458;53.678;14.080;2023-07-09T16:29:23;29.70;40.50
6841;DHT22;3458;53.678;14.080;2023-07-09T16:31:51;29.50;40.40
6841;DHT22;3458;53.678;14.080;2023-07-09T16:34:17;29.30;40.10
6841;DHT22;3458;53.678;14.080;2023-07-09T16:36:42;29.20;40.00
6841;DHT22;3458;53.678;14.080;2023-07-09T16:39:34;29.00;39.90
6841;DHT22;3458;53.678;14.080;2023-07-09T16:42:01;28.80;40.10
6841;DHT22;3458;53.678;14.080;2023-07-09T16:44:28;28.90;39.60
6841;DHT22;3458;53.678;14.080;2023-07-09T16:46:54;28.80;39.10